• Join FlightAware (Why Join?)
  • Login
  • US Flag 
03:32AM EDT


 

Airport Tracker/Info


-or-


 

Live Flight TrackerFlight Track Log ✈ UAL4202 ✈ 05-Apr-2013 ✈ KSTL - KEWR

Flight Track Log - Related Links

Times and Time Zones

All times are in EDT time to prevent confusion due to time zone crossing. See the UAL4202 flight status page for this flight to view local times or setup timezone preferences in your user account.

Time Position Orientation Groundspeed Altitude Reporting Facility
EDT Latitude Longitude Course Direction KTS MPH feet Rate Location/Type
08:35PM 38.7250 -90.2553 106° East 163 188 2,200  Level FAA TRACON SMA TRACON (SMA)
08:36PM 38.7219 -90.2361 102° East 172 198 2,700 1,620 Climbing FAA TRACON SMA TRACON (SMA)
08:36PM 38.7186 -90.2147 101° East 191 220 3,200 1,320 Climbing FAA TRACON SMA TRACON (SMA)
08:36PM 38.7153 -90.1914 100° East 213 245 3,600 1,620 Climbing FAA TRACON SMA TRACON (SMA)
08:37PM 38.7106 -90.1589 101° East 239 275 4,300 1,800 Climbing FAA TRACON SMA TRACON (SMA)
08:37PM 38.7081 -90.1306 96° East 257 296 4,800 1,620 Climbing FAA TRACON SMA TRACON (SMA)
08:37PM 38.7100 -90.1006 85° East 272 313 5,400 2,400 Climbing FAA TRACON SMA TRACON (SMA)
08:38PM 38.7614 -89.8090 87° East  Level FlightAware Approximate
08:38PM 38.7144 -90.0628 81° East 280 322 6,400  Level FAA TRACON SMA TRACON (SMA)
08:38PM 38.7189 -90.0328 79° East 280 322 7,200 2,220 Climbing FAA TRACON SMA TRACON (SMA)
08:38PM 38.7222 -90.0022 82° East 280 322 7,900 2,520 Climbing FAA TRACON SMA TRACON (SMA)
08:39PM 38.7666 -89.6694 87° East  Level FlightAware Approximate
08:39PM 38.7269 -89.9642 81° East 283 326 8,900  Level FAA TRACON SMA TRACON (SMA)
08:39PM 38.7308 -89.9331 81° East 287 330 9,600 1,800 Climbing FAA TRACON SMA TRACON (SMA)
08:39PM 38.7347 -89.9014 81° East 290 334 10,100 1,320 Climbing FAA TRACON SMA TRACON (SMA)
08:40PM 38.7848 -89.5316 84° East  Level FlightAware Approximate
08:40PM 38.7394 -89.8603 82° East 302 348 10,500  Level FAA TRACON SMA TRACON (SMA)
08:40PM 38.7436 -89.8256 81° East 316 364 10,900 1,020 Climbing FAA TRACON SMA TRACON (SMA)
08:40PM 38.7489 -89.7894 79° East 329 379 11,200 1,200 Climbing FAA TRACON SMA TRACON (SMA)
08:41PM 38.7542 -89.7436 82° East 342 394 11,700 1,320 Climbing FAA TRACON SMA TRACON (SMA)
08:41PM 38.7586 -89.7056 81° East 348 400 12,100 1,200 Climbing FAA TRACON SMA TRACON (SMA)
08:41PM 38.7636 -89.6672 80° East 354 407 12,500 1,440 Climbing FAA TRACON SMA TRACON (SMA)
08:42PM 38.7686 -89.6189 82° East 357 411 13,100 1,500 Climbing FAA TRACON SMA TRACON (SMA)
08:42PM 38.7744 -89.5800 79° East 360 414 13,500 1,380 Climbing FAA TRACON SMA TRACON (SMA)
08:42PM 38.7792 -89.5408 81° East 361 415 14,000 1,500 Climbing FAA TRACON SMA TRACON (SMA)
08:43PM 38.7853 -89.4919 81° East 363 418 14,500 1,500 Climbing FAA TRACON SMA TRACON (SMA)
08:43PM 38.7936 -89.4531 75° East 364 419 15,000 1,320 Climbing FAA TRACON SMA TRACON (SMA)
08:43PM 38.8025 -89.4147 73° East 365 420 15,400 1,140 Climbing FAA TRACON SMA TRACON (SMA)
08:44PM 38.8136 -89.3664 74° East 368 423 15,800 1,200 Climbing FAA TRACON SMA TRACON (SMA)
08:44PM 38.8228 -89.3275 73° East 369 425 16,200 1,200 Climbing FAA TRACON SMA TRACON (SMA)
08:44PM 38.8319 -89.2883 73° East 371 427 16,600 1,260 Climbing FAA TRACON SMA TRACON (SMA)
08:45PM 38.8442 -89.2392 72° East 375 432 17,100 1,260 Climbing FAA TRACON SMA TRACON (SMA)
08:45PM 38.8533 -89.1994 73° East 377 434 17,500 1,020 Climbing FAA TRACON SMA TRACON (SMA)
08:45PM 38.8631 -89.1597 73° East 379 436 17,800 1,200 Climbing FAA TRACON SMA TRACON (SMA)
08:46PM 38.8756 -89.1094 72° East 383 441 18,300 1,200 Climbing FAA TRACON SMA TRACON (SMA)
08:46PM 38.8819 -89.0792 75° East 382 440 18,600 420 Climbing FAA TRACON SMA TRACON (SMA)
08:46PM 38.8819 -89.0792 30° Northeast 382 440 18,600 1,320 Level FAA TRACON SMA TRACON (SMA)
08:47PM 38.9078 -89.0119 64° Northeast 388 447 19,800 1,500 Climbing Kansas City Center
08:48PM 38.9406 -88.8861 71° East 398 458 21,000 1,140 Climbing Kansas City Center
08:49PM 38.9719 -88.7472 74° East 404 465 22,200 1,260 Climbing Kansas City Center
08:50PM 39.0075 -88.5869 74° East 407 468 23,600 1,260 Climbing Kansas City Center
08:51PM 39.0386 -88.4453 74° East 408 470 24,900 1,260 Climbing Kansas City Center
08:52PM 39.0669 -88.3033 76° East 411 473 26,200 1,020 Climbing Indianapolis Center
08:53PM 39.0989 -88.1603 74° East 412 474 27,000 360 Climbing Indianapolis Center
08:54PM 39.1397 -88.0161 70° East 420 483 27,000  Level Indianapolis Center
08:55PM 39.1856 -87.8675 68° East 434 499 27,000  Level Indianapolis Center
08:56PM 39.2328 -87.7125 68° East 451 519 27,000  Level Indianapolis Center
08:57PM 39.2847 -87.5425 68° East 462 532 27,000  Level Indianapolis Center
08:58PM 39.3322 -87.3906 68° East 455 524 27,000  Level Indianapolis Center
08:59PM 39.3781 -87.2392 69° East 451 519 27,000  Level Indianapolis Center
09:00PM 39.4236 -87.0850 69° East 456 525 27,000  Level Indianapolis Center
09:01PM 39.4711 -86.9275 69° East 465 535 27,000  Level Indianapolis Center
09:02PM 39.5178 -86.7689 69° East 469 540 27,000  Level Indianapolis Center
09:03PM 39.5653 -86.6100 69° East 470 541 27,000  Level Indianapolis Center
09:04PM 39.6206 -86.4553 65° Northeast 471 542 27,000  Level Indianapolis Center
09:05PM 39.6886 -86.2894 62° Northeast 467 537 27,000  Level Indianapolis Center
09:06PM 39.7500 -86.1389 62° Northeast 470 541 27,000  Level Indianapolis Center
09:07PM 39.8103 -85.9897 62° Northeast 467 537 27,000  Level Indianapolis Center
09:08PM 39.8708 -85.8378 63° Northeast 468 539 27,000  Level Indianapolis Center
09:09PM 39.9322 -85.6878 62° Northeast 468 539 27,000  Level Indianapolis Center
09:10PM 39.9917 -85.5344 63° Northeast 468 539 27,000  Level Indianapolis Center
09:11PM 40.0531 -85.3817 62° Northeast 471 542 27,000  Level Indianapolis Center
09:12PM 40.1225 -85.2036 63° Northeast 470 541 27,000  Level Indianapolis Center
09:13PM 40.1831 -85.0506 63° Northeast 471 542 27,000  Level Indianapolis Center
09:14PM 40.2436 -84.8958 63° Northeast 473 544 27,000  Level Indianapolis Center
09:15PM 40.3006 -84.7497 63° Northeast 471 542 27,000  Level Indianapolis Center
09:16PM 40.3606 -84.5944 63° Northeast 471 542 27,000  Level Indianapolis Center
09:17PM 40.4208 -84.4378 63° Northeast 474 545 27,000  Level Indianapolis Center
09:18PM 40.4800 -84.2817 63° Northeast 474 545 27,000  Level Indianapolis Center
09:19PM 40.5389 -84.1256 64° Northeast 472 543 27,000  Level Indianapolis Center
09:21PM 40.5978 -83.9711 63° Northeast 470 541 27,000  Level Indianapolis Center
09:22PM 40.6553 -83.8169 64° Northeast 465 535 27,000  Level Indianapolis Center
09:23PM 40.7131 -83.6625 64° Northeast 464 534 27,000  Level Indianapolis Center
09:24PM 40.7697 -83.5097 64° Northeast 460 529 27,000  Level Indianapolis Center
09:25PM 40.8200 -83.3256 70° East 465 535 27,000  Level Indianapolis Center
09:26PM 40.8572 -83.1589 73° East 469 540 27,000  Level Indianapolis Center
09:27PM 40.8992 -82.9647 74° East 464 534 27,000  Level Cleveland Center
09:28PM 40.9358 -82.7986 74° East 469 540 27,000  Level Cleveland Center
09:29PM 40.9678 -82.6483 74° East 469 540 27,000  Level Cleveland Center
09:30PM 41.0042 -82.4789 74° East 469 540 27,000  Level Cleveland Center
09:31PM 41.0400 -82.3119 74° East 469 540 27,000  Level Cleveland Center
09:32PM 41.0781 -82.1422 73° East 474 545 27,000  Level Cleveland Center
09:33PM 41.1133 -81.9750 74° East 474 545 27,000  Level Cleveland Center
09:34PM 41.1531 -81.7856 74° East 479 551 27,000  Level Cleveland Center
09:35PM 41.1858 -81.6344 74° East 473 544 27,000  Level Cleveland Center
09:36PM 41.2208 -81.4636 75° East 473 544 27,000  Level Cleveland Center
09:37PM 41.2531 -81.2928 76° East 473 544 27,000  Level Cleveland Center
09:38PM 41.2894 -81.1192 74° East 473 544 27,000  Level Cleveland Center
09:39PM 41.3236 -80.9508 75° East 473 544 27,000  Level Cleveland Center
09:40PM 41.3575 -80.7767 75° East 473 544 27,000  Level Cleveland Center
09:41PM 41.3908 -80.6053 75° East 473 544 27,000  Level Cleveland Center
09:42PM 41.4242 -80.4281 76° East 473 544 27,000  Level Cleveland Center
09:43PM 41.4383 -80.2481 84° East 484 557 27,000  Level Cleveland Center
09:44PM 41.4461 -80.0597 87° East 495 570 27,000  Level Cleveland Center
09:45PM 41.4533 -79.8572 87° East 495 570 27,000  Level Cleveland Center
09:46PM 41.4603 -79.6717 87° East 495 570 27,000  Level Cleveland Center
09:47PM 41.4628 -79.4858 89° East 495 570 27,000  Level Cleveland Center
09:48PM 41.4567 -79.2947 92° East 495 570 27,000  Level Cleveland Center
09:49PM 41.4503 -79.1067 93° East 500 575 27,000  Level Cleveland Center
09:50PM 41.4433 -78.9183 93° East 500 575 27,000  Level Cleveland Center
09:51PM 41.4364 -78.7331 93° East 505 581 27,000  Level Cleveland Center
09:52PM 41.4269 -78.5422 94° East 505 581 27,000  Level Cleveland Center
09:53PM 41.4192 -78.3514 93° East 505 581 27,000  Level Cleveland Center
09:54PM 41.4131 -78.2128 93° East 497 572 27,000  Level New York Center
09:55PM 41.4033 -78.0014 93° East 497 572 27,000  Level New York Center
09:56PM 41.3939 -77.8094 94° East 508 585 27,000  Level New York Center
09:57PM 41.3842 -77.6203 94° East 508 585 27,000  Level New York Center
09:58PM 41.3742 -77.4314 94° East 513 590 27,000  Level New York Center
09:59PM 41.3639 -77.2394 94° East 518 596 27,000  Level New York Center
10:00PM 41.3536 -77.0450 94° East 523 602 27,000  Level New York Center
10:01PM 41.3425 -76.8558 94° East 523 602 27,000  Level New York Center
10:02PM 41.3106 -76.6653 103° East 523 602 27,000 -1,320 Level New York Center
10:03PM 41.2611 -76.4842 110° East 523 602 24,400 -4,560 Descending New York Center
10:04PM 41.2186 -76.3261 110° East 518 596 18,000 -2,760 Descending New York Center
10:05PM 41.1667 -76.1400 110° East 504 580 18,900 -360 Climbing New York Center
10:06PM 41.1275 -75.9936 110° East 479 551 17,300 -1,560 Descending New York Center
10:07PM 41.0842 -75.8361 110° East 462 532 15,800 -1,680 Descending New York Center
10:08PM 41.0372 -75.6647 110° East 457 526 14,100 -1,620 Descending New York Center
10:09PM 40.9936 -75.5133 111° Southeast 451 519 12,600 -1,320 Descending New York Center
10:10PM 40.9589 -75.3872 110° East 429 494 11,500 -1,320 Descending New York Center
10:11PM 40.9222 -75.2556 110° East 361 415 10,100 -1,560 Descending New York Center
10:12PM 40.8931 -75.1494 110° East 324 373 8,400 -1,440 Descending New York Center
10:13PM 40.8633 -75.0458 111° Southeast 301 346 7,200 -720 Descending New York Center
10:14PM 40.8311 -74.9561 115° Southeast 295 339 7,000 -120 Descending New York Center
10:15PM 40.7886 -74.8603 120° Southeast 295 339 7,000 -180 Level New York Center
10:16PM 40.7422 -74.7561 120° Southeast 301 346 6,700 -600 Descending New York Center
10:17PM 40.7033 -74.6744 122° Southeast 301 346 5,800 -1,020 Descending New York Center
10:18PM 40.6500 -74.5667 123° Southeast 288 331 4,600 -1,080 Descending New York TRACON
10:19PM 40.6000 -74.4667 123° Southeast 273 314 3,500 -840 Descending New York TRACON
10:20PM 40.5667 -74.4000 123° Southeast 258 297 2,900 -300 Descending New York TRACON
10:21PM 40.5500 -74.3000 102° East 232 267 3,000 -60 Climbing New York TRACON
10:22PM 40.5667 -74.2500 66° East 152 175 2,800 -540 Descending New York TRACON
10:23PM 40.6000 -74.2167 37° Northeast 138 159 1,900 -900 Descending New York TRACON
10:24PM 40.6333 -74.2000 21° North 129 148 1,100 -840 Descending New York TRACON